Flight Track Log - Related Links

Times and Time Zones

All times are in EDT time to prevent confusion due to time zone crossing. See the KAP927 flight status page for this flight to view local times or setup timezone preferences in your user account.

Time Position Orientation Groundspeed Altitude Reporting Facility
EDT Latitude Longitude Course Direction KTS MPH feet Rate Location/Type
Fri 02:37:05 PM 42.7881 -73.8206 331° Northwest 116 133 1,700  Level Boston Center
Fri 02:38:06 PM 42.8231 -73.8469 331° Northwest 133 153 2,400 703 Climbing Boston Center
Fri 02:39:13 PM 42.8542 -73.8731 328° Northwest 122 140 3,200 761 Climbing Boston Center
Fri 02:40:20 PM 42.8872 -73.8967 332° Northwest 119 137 4,100 756 Climbing Boston Center
Fri 02:41:20 PM 42.9119 -73.9200 325° Northwest 117 135 4,800 626 Climbing Boston Center
Fri 02:42:15 PM 42.9406 -73.9461 326° Northwest 122 140 5,300 569 Climbing Boston Center
Fri 02:43:16 PM 42.9675 -73.9722 325° Northwest 128 147 5,900 542 Climbing Boston Center
Fri 02:45:00 PM 43.0223 -74.0184 North  Level Estimated
Fri 02:47:25 PM 43.1011 -74.0950 350° North 138 159 8,100  Level Boston Center
Fri 02:48:25 PM 43.1319 -74.1186 331° Northwest 136 157 8,500 307 Climbing Boston Center
Fri 02:49:42 PM 43.1794 -74.1569 330° Northwest 163 188 8,800 350 Climbing Boston Center
Fri 02:50:42 PM 43.2103 -74.1836 328° Northwest 156 180 9,300 550 Climbing Boston Center
Fri 02:51:42 PM 43.2472 -74.2131 330° Northwest 146 168 9,900 550 Climbing Boston Center
Fri 02:52:00 PM 43.2433 -74.2057 350° North  Level Estimated
Fri 02:52:42 PM 43.2761 -74.2394 326° Northwest 146 168 10,400  Level Boston Center
Fri 02:53:42 PM 43.3153 -74.2692 331° Northwest 146 168 10,600 100 Climbing Boston Center
Fri 02:54:42 PM 43.3481 -74.2989 327° Northwest 146 168 10,600  Level Boston Center
Fri 02:55:42 PM 43.3831 -74.3283 329° Northwest 146 168 10,600  Level Boston Center
Fri 02:56:42 PM 43.4222 -74.3611 329° Northwest 151 174 10,600  Level Boston Center
Fri 02:57:42 PM 43.4569 -74.3936 326° Northwest 151 174 10,600  Level Boston Center
Fri 02:58:42 PM 43.4939 -74.4236 330° Northwest 151 174 10,600  Level Boston Center
Fri 02:59:42 PM 43.5289 -74.4533 328° Northwest 151 174 10,600  Level Boston Center
Fri 03:00:42 PM 43.5658 -74.4861 327° Northwest 151 174 10,600  Level Boston Center
Fri 03:01:42 PM 43.6028 -74.5131 332° Northwest 151 174 10,600 -50 Level Boston Center
Fri 03:02:42 PM 43.6356 -74.5486 322° Northwest 151 174 10,500  Descending Boston Center
Fri 03:03:42 PM 43.6703 -74.5842 323° Northwest 151 174 10,600 50 Climbing Boston Center
Fri 03:04:42 PM 43.7094 -74.6144 331° Northwest 151 174 10,600  Level Boston Center
Fri 03:05:42 PM 43.7442 -74.6444 328° Northwest 151 174 10,600  Level Boston Center
Fri 03:06:42 PM 43.7811 -74.6772 327° Northwest 151 174 10,600  Level Boston Center
Fri 03:07:42 PM 43.8181 -74.7075 329° Northwest 151 174 10,600  Level Boston Center
Fri 03:08:42 PM 43.8550 -74.7378 329° Northwest 151 174 10,600  Level Boston Center
Fri 03:09:42 PM 43.8897 -74.7678 328° Northwest 151 174 10,600  Level Boston Center
Fri 03:10:42 PM 43.9267 -74.8011 327° Northwest 151 174 10,600 -100 Level Boston Center
Fri 03:11:42 PM 43.9633 -74.8314 329° Northwest 151 174 10,400 -350 Descending Boston Center
Fri 03:12:42 PM 44.0022 -74.8675 326° Northwest 157 181 9,900 -550 Descending Boston Center
Fri 03:13:42 PM 44.0453 -74.9039 329° Northwest 168 193 9,300 -600 Descending Boston Center
Fri 03:14:42 PM 44.0861 -74.9403 327° Northwest 168 193 8,700 -600 Descending Boston Center
Fri 03:15:42 PM 44.1292 -74.9767 329° Northwest 168 193 8,100 -600 Descending Boston Center
Fri 03:16:42 PM 44.1722 -75.0133 329° Northwest 174 200 7,500 -600 Descending Boston Center
Fri 03:17:42 PM 44.2194 -75.0444 335° Northwest 180 207 6,900 -600 Descending Boston Center
Fri 03:18:42 PM 44.2644 -75.0753 334° Northwest 185 213 6,300 -650 Descending Boston Center
Fri 03:19:42 PM 44.3094 -75.1122 330° Northwest 185 213 5,600 -650 Descending Boston Center
Fri 03:20:42 PM 44.3525 -75.1461 331° Northwest 179 206 5,000 -600 Descending Boston Center
Fri 03:21:42 PM 44.3975 -75.1800 332° Northwest 179 206 4,400 -600 Descending Boston Center
Fri 03:22:42 PM 44.4406 -75.2142 330° Northwest 179 206 3,800 -550 Descending Boston Center
Fri 03:23:42 PM 44.4836 -75.2422 335° Northwest 179 206 3,300 -500 Descending Boston Center

Login

Don't have an account? Register now (free) for customized features, flight alerts, and more!